sensor_id;sensor_type;location;lat;lon;timestamp;P1;durP1;ratioP1;P2;durP2;ratioP2
58015;SDS011;43809;52.110;20.964;2024-01-16T00:03:37;3.42;;;1.58;;
58015;SDS011;43809;52.110;20.964;2024-01-16T00:07:38;2.53;;;1.50;;
58015;SDS011;43809;52.110;20.964;2024-01-16T00:09:39;2.78;;;1.58;;
58015;SDS011;43809;52.110;20.964;2024-01-16T00:15:02;2.47;;;1.73;;
58015;SDS011;43809;52.110;20.964;2024-01-16T00:17:03;2.83;;;1.70;;
58015;SDS011;43809;52.110;20.964;2024-01-16T00:19:04;2.50;;;1.85;;
58015;SDS011;43809;52.110;20.964;2024-01-16T00:21:05;2.30;;;1.60;;
58015;SDS011;43809;52.110;20.964;2024-01-16T00:23:05;4.18;;;1.70;;
58015;SDS011;43809;52.110;20.964;2024-01-16T00:25:06;2.70;;;1.60;;
58015;SDS011;43809;52.110;20.964;2024-01-16T00:27:07;3.75;;;1.80;;
58015;SDS011;43809;52.110;20.964;2024-01-16T00:29:08;2.70;;;1.67;;
58015;SDS011;43809;52.110;20.964;2024-01-16T00:34:26;3.63;;;1.83;;
58015;SDS011;43809;52.110;20.964;2024-01-16T00:36:26;2.20;;;1.80;;
58015;SDS011;43809;52.110;20.964;2024-01-16T00:38:27;2.67;;;1.83;;
58015;SDS011;43809;52.110;20.964;2024-01-16T00:40:28;2.15;;;1.58;;
58015;SDS011;43809;52.110;20.964;2024-01-16T00:42:28;3.55;;;1.70;;
58015;SDS011;43809;52.110;20.964;2024-01-16T00:44:29;2.83;;;2.00;;
58015;SDS011;43809;52.110;20.964;2024-01-16T00:52:19;3.10;;;1.77;;
58015;SDS011;43809;52.110;20.964;2024-01-16T00:54:19;2.35;;;1.90;;
58015;SDS011;43809;52.110;20.964;2024-01-16T00:56:20;2.25;;;1.92;;
58015;SDS011;43809;52.110;20.964;2024-01-16T00:58:24;2.40;;;1.63;;
58015;SDS011;43809;52.110;20.964;2024-01-16T01:00:24;2.80;;;1.70;;
58015;SDS011;43809;52.110;20.964;2024-01-16T01:05:51;2.03;;;1.55;;
58015;SDS011;43809;52.110;20.964;2024-01-16T01:07:52;1.90;;;1.67;;
58015;SDS011;43809;52.110;20.964;2024-01-16T01:09:53;2.88;;;1.65;;
58015;SDS011;43809;52.110;20.964;2024-01-16T01:11:53;2.47;;;1.63;;
58015;SDS011;43809;52.110;20.964;2024-01-16T01:13:56;3.05;;;1.60;;
58015;SDS011;43809;52.110;20.964;2024-01-16T01:15:56;2.58;;;1.83;;
58015;SDS011;43809;52.110;20.964;2024-01-16T01:17:57;2.97;;;1.75;;
58015;SDS011;43809;52.110;20.964;2024-01-16T01:19:58;2.17;;;1.70;;
58015;SDS011;43809;52.110;20.964;2024-01-16T01:21:59;3.47;;;2.08;;
58015;SDS011;43809;52.110;20.964;2024-01-16T01:23:59;3.08;;;1.70;;
58015;SDS011;43809;52.110;20.964;2024-01-16T01:26:00;2.22;;;1.70;;
58015;SDS011;43809;52.110;20.964;2024-01-16T01:28:01;1.95;;;1.70;;
58015;SDS011;43809;52.110;20.964;2024-01-16T01:30:02;2.00;;;1.75;;
58015;SDS011;43809;52.110;20.964;2024-01-16T01:32:02;2.95;;;1.83;;
58015;SDS011;43809;52.110;20.964;2024-01-16T01:37:16;2.25;;;1.73;;
58015;SDS011;43809;52.110;20.964;2024-01-16T01:39:17;1.85;;;1.60;;
58015;SDS011;43809;52.110;20.964;2024-01-16T01:41:22;2.08;;;1.60;;
58015;SDS011;43809;52.110;20.964;2024-01-16T01:43:23;2.05;;;1.63;;
58015;SDS011;43809;52.110;20.964;2024-01-16T01:45:24;2.08;;;1.67;;
58015;SDS011;43809;52.110;20.964;2024-01-16T01:47:25;3.20;;;1.55;;
58015;SDS011;43809;52.110;20.964;2024-01-16T01:49:30;2.88;;;1.63;;
58015;SDS011;43809;52.110;20.964;2024-01-16T01:51:31;1.95;;;1.60;;
58015;SDS011;43809;52.110;20.964;2024-01-16T01:53:32;2.58;;;1.75;;
58015;SDS011;43809;52.110;20.964;2024-01-16T01:55:33;2.83;;;1.83;;
58015;SDS011;43809;52.110;20.964;2024-01-16T01:57:34;2.58;;;1.85;;
58015;SDS011;43809;52.110;20.964;2024-01-16T01:59:35;2.35;;;1.70;;
58015;SDS011;43809;52.110;20.964;2024-01-16T02:04:48;2.80;;;1.77;;
58015;SDS011;43809;52.110;20.964;2024-01-16T02:06:49;3.50;;;2.00;;
58015;SDS011;43809;52.110;20.964;2024-01-16T02:12:01;4.13;;;2.10;;
58015;SDS011;43809;52.110;20.964;2024-01-16T02:14:02;4.45;;;2.05;;
58015;SDS011;43809;52.110;20.964;2024-01-16T02:16:03;3.22;;;1.80;;
58015;SDS011;43809;52.110;20.964;2024-01-16T02:18:04;2.80;;;1.77;;
58015;SDS011;43809;52.110;20.964;2024-01-16T02:20:04;2.35;;;1.75;;
58015;SDS011;43809;52.110;20.964;2024-01-16T02:22:08;2.72;;;1.92;;
58015;SDS011;43809;52.110;20.964;2024-01-16T02:24:10;2.92;;;2.30;;
58015;SDS011;43809;52.110;20.964;2024-01-16T02:26:13;2.85;;;1.88;;
58015;SDS011;43809;52.110;20.964;2024-01-16T02:28:14;3.13;;;2.10;;
58015;SDS011;43809;52.110;20.964;2024-01-16T02:30:15;2.83;;;1.90;;
58015;SDS011;43809;52.110;20.964;2024-01-16T02:32:15;3.40;;;1.90;;
58015;SDS011;43809;52.110;20.964;2024-01-16T02:34:16;2.58;;;1.60;;
58015;SDS011;43809;52.110;20.964;2024-01-16T02:42:14;2.78;;;1.70;;
58015;SDS011;43809;52.110;20.964;2024-01-16T02:44:15;1.85;;;1.50;;
58015;SDS011;43809;52.110;20.964;2024-01-16T02:46:16;2.83;;;1.60;;
58015;SDS011;43809;52.110;20.964;2024-01-16T02:48:16;3.15;;;1.55;;
58015;SDS011;43809;52.110;20.964;2024-01-16T02:50:17;2.92;;;1.50;;
58015;SDS011;43809;52.110;20.964;2024-01-16T02:52:18;2.70;;;1.52;;
58015;SDS011;43809;52.110;20.964;2024-01-16T02:54:19;2.13;;;1.52;;
58015;SDS011;43809;52.110;20.964;2024-01-16T02:59:02;1.67;;;1.50;;
58015;SDS011;43809;52.110;20.964;2024-01-16T03:01:03;3.17;;;1.90;;
58015;SDS011;43809;52.110;20.964;2024-01-16T03:03:04;2.65;;;1.70;;
58015;SDS011;43809;52.110;20.964;2024-01-16T03:05:05;3.00;;;1.70;;
58015;SDS011;43809;52.110;20.964;2024-01-16T03:07:06;3.50;;;1.90;;
58015;SDS011;43809;52.110;20.964;2024-01-16T03:09:06;2.60;;;1.77;;
58015;SDS011;43809;52.110;20.964;2024-01-16T03:11:07;2.63;;;1.75;;
58015;SDS011;43809;52.110;20.964;2024-01-16T03:13:08;2.10;;;1.55;;
58015;SDS011;43809;52.110;20.964;2024-01-16T03:15:09;2.80;;;1.70;;
58015;SDS011;43809;52.110;20.964;2024-01-16T03:17:10;3.15;;;2.28;;
58015;SDS011;43809;52.110;20.964;2024-01-16T03:19:11;3.33;;;1.85;;
58015;SDS011;43809;52.110;20.964;2024-01-16T03:21:13;2.50;;;1.90;;
58015;SDS011;43809;52.110;20.964;2024-01-16T03:23:13;2.65;;;1.92;;
58015;SDS011;43809;52.110;20.964;2024-01-16T03:25:14;3.95;;;2.13;;
58015;SDS011;43809;52.110;20.964;2024-01-16T03:27:15;2.85;;;2.30;;
58015;SDS011;43809;52.110;20.964;2024-01-16T03:29:15;2.83;;;2.00;;
58015;SDS011;43809;52.110;20.964;2024-01-16T03:33:46;4.00;;;2.47;;
58015;SDS011;43809;52.110;20.964;2024-01-16T03:35:47;4.28;;;2.55;;
58015;SDS011;43809;52.110;20.964;2024-01-16T03:39:57;3.33;;;2.50;;
58015;SDS011;43809;52.110;20.964;2024-01-16T03:41:58;2.70;;;2.28;;
58015;SDS011;43809;52.110;20.964;2024-01-16T03:43:59;3.10;;;2.20;;
58015;SDS011;43809;52.110;20.964;2024-01-16T03:46:00;3.80;;;2.28;;
58015;SDS011;43809;52.110;20.964;2024-01-16T03:48:01;3.35;;;2.55;;
58015;SDS011;43809;52.110;20.964;2024-01-16T03:50:02;2.55;;;1.92;;
58015;SDS011;43809;52.110;20.964;2024-01-16T03:52:03;2.63;;;2.10;;
58015;SDS011;43809;52.110;20.964;2024-01-16T04:00:05;3.17;;;1.80;;
58015;SDS011;43809;52.110;20.964;2024-01-16T04:02:05;2.60;;;2.03;;
58015;SDS011;43809;52.110;20.964;2024-01-16T04:04:06;3.53;;;2.10;;
58015;SDS011;43809;52.110;20.964;2024-01-16T04:15:14;2.90;;;2.15;;
58015;SDS011;43809;52.110;20.964;2024-01-16T04:17:15;2.80;;;2.00;;
58015;SDS011;43809;52.110;20.964;2024-01-16T04:19:16;4.15;;;2.60;;
58015;SDS011;43809;52.110;20.964;2024-01-16T04:21:16;3.67;;;2.63;;
58015;SDS011;43809;52.110;20.964;2024-01-16T04:23:17;3.50;;;2.20;;
58015;SDS011;43809;52.110;20.964;2024-01-16T04:25:27;4.60;;;2.67;;
58015;SDS011;43809;52.110;20.964;2024-01-16T04:27:28;5.28;;;2.80;;
58015;SDS011;43809;52.110;20.964;2024-01-16T04:29:28;3.92;;;2.50;;
58015;SDS011;43809;52.110;20.964;2024-01-16T04:33:59;3.20;;;2.33;;
58015;SDS011;43809;52.110;20.964;2024-01-16T04:36:00;4.53;;;2.60;;
58015;SDS011;43809;52.110;20.964;2024-01-16T04:38:01;2.67;;;2.13;;
58015;SDS011;43809;52.110;20.964;2024-01-16T04:40:01;2.47;;;2.00;;
58015;SDS011;43809;52.110;20.964;2024-01-16T04:42:02;2.97;;;2.00;;
58015;SDS011;43809;52.110;20.964;2024-01-16T04:44:03;4.45;;;2.33;;
58015;SDS011;43809;52.110;20.964;2024-01-16T04:46:03;3.53;;;2.53;;
58015;SDS011;43809;52.110;20.964;2024-01-16T04:48:04;3.10;;;2.05;;
58015;SDS011;43809;52.110;20.964;2024-01-16T04:50:05;4.03;;;1.95;;
58015;SDS011;43809;52.110;20.964;2024-01-16T04:52:06;3.53;;;2.10;;
58015;SDS011;43809;52.110;20.964;2024-01-16T04:54:13;2.50;;;1.90;;
58015;SDS011;43809;52.110;20.964;2024-01-16T04:56:14;2.97;;;2.15;;
58015;SDS011;43809;52.110;20.964;2024-01-16T04:58:14;4.53;;;2.40;;
58015;SDS011;43809;52.110;20.964;2024-01-16T05:00:15;2.78;;;2.10;;
58015;SDS011;43809;52.110;20.964;2024-01-16T05:07:47;3.47;;;2.13;;
58015;SDS011;43809;52.110;20.964;2024-01-16T05:09:48;3.25;;;2.30;;
58015;SDS011;43809;52.110;20.964;2024-01-16T05:11:50;3.63;;;2.03;;
58015;SDS011;43809;52.110;20.964;2024-01-16T05:13:50;3.95;;;2.22;;
58015;SDS011;43809;52.110;20.964;2024-01-16T05:15:57;3.58;;;2.38;;
58015;SDS011;43809;52.110;20.964;2024-01-16T05:17:58;3.20;;;2.20;;
58015;SDS011;43809;52.110;20.964;2024-01-16T05:19:58;2.97;;;2.33;;
58015;SDS011;43809;52.110;20.964;2024-01-16T05:24:44;2.70;;;2.00;;
58015;SDS011;43809;52.110;20.964;2024-01-16T05:26:45;3.28;;;2.20;;
58015;SDS011;43809;52.110;20.964;2024-01-16T05:38:19;3.70;;;2.08;;
58015;SDS011;43809;52.110;20.964;2024-01-16T05:40:19;3.17;;;2.00;;
58015;SDS011;43809;52.110;20.964;2024-01-16T05:42:20;3.90;;;2.40;;
58015;SDS011;43809;52.110;20.964;2024-01-16T05:44:21;3.33;;;2.30;;
58015;SDS011;43809;52.110;20.964;2024-01-16T05:48:56;3.78;;;2.45;;
58015;SDS011;43809;52.110;20.964;2024-01-16T05:50:57;4.15;;;2.50;;
58015;SDS011;43809;52.110;20.964;2024-01-16T05:52:57;3.22;;;2.33;;
58015;SDS011;43809;52.110;20.964;2024-01-16T05:54:58;3.35;;;2.40;;
58015;SDS011;43809;52.110;20.964;2024-01-16T05:57:00;3.35;;;2.03;;
58015;SDS011;43809;52.110;20.964;2024-01-16T05:59:00;4.07;;;2.22;;
58015;SDS011;43809;52.110;20.964;2024-01-16T06:01:01;3.55;;;2.30;;
58015;SDS011;43809;52.110;20.964;2024-01-16T06:03:02;2.95;;;2.15;;
58015;SDS011;43809;52.110;20.964;2024-01-16T06:05:03;2.45;;;1.83;;
58015;SDS011;43809;52.110;20.964;2024-01-16T06:07:04;2.90;;;1.90;;
58015;SDS011;43809;52.110;20.964;2024-01-16T06:12:18;4.95;;;2.70;;
58015;SDS011;43809;52.110;20.964;2024-01-16T06:14:19;14.07;;;7.25;;
58015;SDS011;43809;52.110;20.964;2024-01-16T06:18:22;10.88;;;6.15;;
58015;SDS011;43809;52.110;20.964;2024-01-16T06:20:23;9.77;;;5.18;;
58015;SDS011;43809;52.110;20.964;2024-01-16T06:22:25;6.35;;;4.10;;
58015;SDS011;43809;52.110;20.964;2024-01-16T06:26:48;5.53;;;3.35;;
58015;SDS011;43809;52.110;20.964;2024-01-16T06:28:49;5.43;;;3.53;;
58015;SDS011;43809;52.110;20.964;2024-01-16T06:30:49;5.50;;;3.28;;
58015;SDS011;43809;52.110;20.964;2024-01-16T06:32:50;6.22;;;3.95;;
58015;SDS011;43809;52.110;20.964;2024-01-16T06:34:51;6.15;;;3.90;;
58015;SDS011;43809;52.110;20.964;2024-01-16T06:36:51;5.22;;;3.20;;
58015;SDS011;43809;52.110;20.964;2024-01-16T06:39:01;5.47;;;3.38;;
58015;SDS011;43809;52.110;20.964;2024-01-16T06:41:01;4.35;;;3.20;;
58015;SDS011;43809;52.110;20.964;2024-01-16T06:43:02;4.82;;;3.10;;
58015;SDS011;43809;52.110;20.964;2024-01-16T06:45:03;4.03;;;3.10;;
58015;SDS011;43809;52.110;20.964;2024-01-16T06:52:20;6.60;;;3.88;;
58015;SDS011;43809;52.110;20.964;2024-01-16T07:00:43;4.47;;;3.10;;
58015;SDS011;43809;52.110;20.964;2024-01-16T07:02:43;4.25;;;3.15;;
58015;SDS011;43809;52.110;20.964;2024-01-16T07:04:45;4.15;;;2.92;;
58015;SDS011;43809;52.110;20.964;2024-01-16T07:06:45;7.00;;;3.88;;
58015;SDS011;43809;52.110;20.964;2024-01-16T07:09:03;5.47;;;3.80;;
58015;SDS011;43809;52.110;20.964;2024-01-16T07:11:05;5.13;;;3.20;;
58015;SDS011;43809;52.110;20.964;2024-01-16T07:13:08;4.60;;;3.08;;
58015;SDS011;43809;52.110;20.964;2024-01-16T07:15:10;6.15;;;3.97;;
58015;SDS011;43809;52.110;20.964;2024-01-16T07:23:33;7.32;;;4.10;;
58015;SDS011;43809;52.110;20.964;2024-01-16T07:25:33;7.40;;;4.17;;
58015;SDS011;43809;52.110;20.964;2024-01-16T07:27:34;6.72;;;4.28;;
58015;SDS011;43809;52.110;20.964;2024-01-16T07:29:35;6.97;;;4.32;;
58015;SDS011;43809;52.110;20.964;2024-01-16T07:31:52;6.15;;;3.70;;
58015;SDS011;43809;52.110;20.964;2024-01-16T07:33:53;6.03;;;3.97;;
58015;SDS011;43809;52.110;20.964;2024-01-16T07:35:54;7.03;;;4.18;;
58015;SDS011;43809;52.110;20.964;2024-01-16T07:37:55;6.22;;;4.10;;
58015;SDS011;43809;52.110;20.964;2024-01-16T07:39:56;7.45;;;4.18;;
58015;SDS011;43809;52.110;20.964;2024-01-16T07:41:56;7.60;;;3.90;;
58015;SDS011;43809;52.110;20.964;2024-01-16T07:43:58;5.90;;;3.58;;
58015;SDS011;43809;52.110;20.964;2024-01-16T07:45:59;6.68;;;4.07;;
58015;SDS011;43809;52.110;20.964;2024-01-16T07:47:59;4.95;;;3.58;;
58015;SDS011;43809;52.110;20.964;2024-01-16T07:50:00;8.25;;;5.00;;
58015;SDS011;43809;52.110;20.964;2024-01-16T07:52:01;10.55;;;5.85;;
58015;SDS011;43809;52.110;20.964;2024-01-16T07:54:09;11.27;;;6.65;;
58015;SDS011;43809;52.110;20.964;2024-01-16T07:59:00;18.13;;;9.57;;
58015;SDS011;43809;52.110;20.964;2024-01-16T08:01:01;21.15;;;11.07;;
58015;SDS011;43809;52.110;20.964;2024-01-16T08:03:03;22.10;;;11.43;;
58015;SDS011;43809;52.110;20.964;2024-01-16T08:05:04;16.52;;;8.57;;
58015;SDS011;43809;52.110;20.964;2024-01-16T08:07:05;16.35;;;8.60;;
58015;SDS011;43809;52.110;20.964;2024-01-16T08:09:07;11.38;;;7.22;;
58015;SDS011;43809;52.110;20.964;2024-01-16T08:11:07;10.13;;;6.20;;
58015;SDS011;43809;52.110;20.964;2024-01-16T08:15:44;9.05;;;5.95;;
58015;SDS011;43809;52.110;20.964;2024-01-16T08:17:45;8.20;;;5.30;;
58015;SDS011;43809;52.110;20.964;2024-01-16T08:19:45;8.88;;;5.40;;
58015;SDS011;43809;52.110;20.964;2024-01-16T08:21:46;9.27;;;5.50;;
58015;SDS011;43809;52.110;20.964;2024-01-16T08:26:12;9.93;;;5.63;;
58015;SDS011;43809;52.110;20.964;2024-01-16T08:28:13;10.52;;;6.32;;
58015;SDS011;43809;52.110;20.964;2024-01-16T08:30:14;8.70;;;5.22;;
58015;SDS011;43809;52.110;20.964;2024-01-16T08:32:15;7.47;;;4.90;;
58015;SDS011;43809;52.110;20.964;2024-01-16T08:34:19;6.95;;;5.28;;
58015;SDS011;43809;52.110;20.964;2024-01-16T08:36:20;6.20;;;4.80;;
58015;SDS011;43809;52.110;20.964;2024-01-16T08:38:21;7.22;;;4.45;;
58015;SDS011;43809;52.110;20.964;2024-01-16T08:40:21;6.30;;;4.38;;
58015;SDS011;43809;52.110;20.964;2024-01-16T08:42:22;7.00;;;4.60;;
58015;SDS011;43809;52.110;20.964;2024-01-16T08:44:31;6.00;;;4.20;;
58015;SDS011;43809;52.110;20.964;2024-01-16T08:46:31;5.57;;;3.33;;
58015;SDS011;43809;52.110;20.964;2024-01-16T08:48:35;6.15;;;3.80;;
58015;SDS011;43809;52.110;20.964;2024-01-16T08:50:36;6.25;;;3.92;;
58015;SDS011;43809;52.110;20.964;2024-01-16T08:52:37;7.20;;;4.25;;
58015;SDS011;43809;52.110;20.964;2024-01-16T08:54:37;5.47;;;3.83;;
58015;SDS011;43809;52.110;20.964;2024-01-16T08:56:38;6.70;;;3.83;;
58015;SDS011;43809;52.110;20.964;2024-01-16T08:58:39;8.38;;;4.50;;
58015;SDS011;43809;52.110;20.964;2024-01-16T09:00:40;7.00;;;4.17;;
58015;SDS011;43809;52.110;20.964;2024-01-16T09:02:41;6.63;;;3.85;;
58015;SDS011;43809;52.110;20.964;2024-01-16T09:04:42;5.72;;;3.60;;
58015;SDS011;43809;52.110;20.964;2024-01-16T09:06:42;7.20;;;3.70;;
58015;SDS011;43809;52.110;20.964;2024-01-16T09:08:43;5.90;;;3.47;;
58015;SDS011;43809;52.110;20.964;2024-01-16T09:10:44;6.07;;;3.58;;
58015;SDS011;43809;52.110;20.964;2024-01-16T09:12:45;4.90;;;3.15;;
58015;SDS011;43809;52.110;20.964;2024-01-16T09:14:46;5.22;;;2.85;;
58015;SDS011;43809;52.110;20.964;2024-01-16T09:16:46;5.45;;;3.00;;
58015;SDS011;43809;52.110;20.964;2024-01-16T09:18:47;5.82;;;3.40;;
58015;SDS011;43809;52.110;20.964;2024-01-16T09:20:50;5.50;;;3.10;;
58015;SDS011;43809;52.110;20.964;2024-01-16T09:22:51;4.75;;;2.83;;
58015;SDS011;43809;52.110;20.964;2024-01-16T09:24:52;4.78;;;2.33;;
58015;SDS011;43809;52.110;20.964;2024-01-16T09:26:53;4.03;;;2.88;;
58015;SDS011;43809;52.110;20.964;2024-01-16T09:28:53;7.15;;;3.15;;
58015;SDS011;43809;52.110;20.964;2024-01-16T09:30:54;4.72;;;2.75;;
58015;SDS011;43809;52.110;20.964;2024-01-16T09:32:56;5.32;;;3.08;;
58015;SDS011;43809;52.110;20.964;2024-01-16T09:34:57;5.28;;;3.20;;
58015;SDS011;43809;52.110;20.964;2024-01-16T09:36:58;5.32;;;3.10;;
58015;SDS011;43809;52.110;20.964;2024-01-16T09:39:06;5.90;;;3.28;;
58015;SDS011;43809;52.110;20.964;2024-01-16T09:41:11;4.05;;;2.95;;
58015;SDS011;43809;52.110;20.964;2024-01-16T09:43:12;5.32;;;2.75;;
58015;SDS011;43809;52.110;20.964;2024-01-16T09:45:15;7.20;;;3.67;;
58015;SDS011;43809;52.110;20.964;2024-01-16T09:47:25;5.07;;;3.20;;
58015;SDS011;43809;52.110;20.964;2024-01-16T09:49:34;4.32;;;3.00;;
58015;SDS011;43809;52.110;20.964;2024-01-16T09:51:35;5.57;;;3.20;;
58015;SDS011;43809;52.110;20.964;2024-01-16T09:53:36;6.97;;;3.70;;
58015;SDS011;43809;52.110;20.964;2024-01-16T09:55:39;5.50;;;3.30;;
58015;SDS011;43809;52.110;20.964;2024-01-16T10:00:00;5.70;;;3.00;;
58015;SDS011;43809;52.110;20.964;2024-01-16T10:02:01;5.43;;;2.88;;
58015;SDS011;43809;52.110;20.964;2024-01-16T10:04:19;4.00;;;2.63;;
58015;SDS011;43809;52.110;20.964;2024-01-16T10:06:23;4.97;;;2.70;;
58015;SDS011;43809;52.110;20.964;2024-01-16T10:08:24;4.30;;;2.70;;
58015;SDS011;43809;52.110;20.964;2024-01-16T10:10:25;6.60;;;3.47;;
58015;SDS011;43809;52.110;20.964;2024-01-16T10:12:28;4.18;;;2.72;;
58015;SDS011;43809;52.110;20.964;2024-01-16T10:14:29;3.90;;;2.78;;
58015;SDS011;43809;52.110;20.964;2024-01-16T10:18:50;5.63;;;3.30;;
58015;SDS011;43809;52.110;20.964;2024-01-16T10:21:04;4.50;;;2.70;;
58015;SDS011;43809;52.110;20.964;2024-01-16T10:23:04;3.65;;;2.60;;
58015;SDS011;43809;52.110;20.964;2024-01-16T10:27:06;5.97;;;3.05;;
58015;SDS011;43809;52.110;20.964;2024-01-16T10:29:06;4.13;;;2.72;;
58015;SDS011;43809;52.110;20.964;2024-01-16T10:31:11;4.45;;;2.53;;
58015;SDS011;43809;52.110;20.964;2024-01-16T10:33:14;5.43;;;2.60;;
58015;SDS011;43809;52.110;20.964;2024-01-16T10:35:15;3.67;;;2.50;;
58015;SDS011;43809;52.110;20.964;2024-01-16T10:37:16;4.07;;;2.20;;
58015;SDS011;43809;52.110;20.964;2024-01-16T10:39:17;5.70;;;2.78;;
58015;SDS011;43809;52.110;20.964;2024-01-16T10:41:18;4.10;;;2.25;;
58015;SDS011;43809;52.110;20.964;2024-01-16T10:43:19;4.10;;;2.47;;
58015;SDS011;43809;52.110;20.964;2024-01-16T10:45:20;5.10;;;2.50;;
58015;SDS011;43809;52.110;20.964;2024-01-16T10:47:21;4.15;;;2.83;;
58015;SDS011;43809;52.110;20.964;2024-01-16T10:49:22;5.10;;;2.70;;
58015;SDS011;43809;52.110;20.964;2024-01-16T10:51:22;3.78;;;2.22;;
58015;SDS011;43809;52.110;20.964;2024-01-16T10:53:23;4.85;;;2.90;;
58015;SDS011;43809;52.110;20.964;2024-01-16T10:55:26;4.15;;;2.70;;
58015;SDS011;43809;52.110;20.964;2024-01-16T10:57:28;4.00;;;2.40;;
58015;SDS011;43809;52.110;20.964;2024-01-16T10:59:49;5.53;;;2.70;;
58015;SDS011;43809;52.110;20.964;2024-01-16T11:01:53;4.47;;;2.60;;
58015;SDS011;43809;52.110;20.964;2024-01-16T11:03:55;4.38;;;2.70;;
58015;SDS011;43809;52.110;20.964;2024-01-16T11:07:58;4.72;;;2.97;;
58015;SDS011;43809;52.110;20.964;2024-01-16T11:10:02;6.13;;;3.10;;
58015;SDS011;43809;52.110;20.964;2024-01-16T11:12:03;6.28;;;3.10;;
58015;SDS011;43809;52.110;20.964;2024-01-16T11:14:04;3.88;;;2.40;;
58015;SDS011;43809;52.110;20.964;2024-01-16T11:18:29;3.83;;;2.40;;
58015;SDS011;43809;52.110;20.964;2024-01-16T11:20:30;4.38;;;2.60;;
58015;SDS011;43809;52.110;20.964;2024-01-16T11:25:49;3.88;;;2.30;;
58015;SDS011;43809;52.110;20.964;2024-01-16T11:27:49;4.53;;;2.40;;
58015;SDS011;43809;52.110;20.964;2024-01-16T11:29:51;4.63;;;2.50;;
58015;SDS011;43809;52.110;20.964;2024-01-16T11:31:53;3.03;;;2.20;;
58015;SDS011;43809;52.110;20.964;2024-01-16T11:33:56;5.57;;;2.70;;
58015;SDS011;43809;52.110;20.964;2024-01-16T11:35:57;5.60;;;2.83;;
58015;SDS011;43809;52.110;20.964;2024-01-16T11:38:03;4.20;;;2.38;;
58015;SDS011;43809;52.110;20.964;2024-01-16T11:42:25;4.28;;;2.67;;
58015;SDS011;43809;52.110;20.964;2024-01-16T11:47:01;3.35;;;2.10;;
58015;SDS011;43809;52.110;20.964;2024-01-16T11:49:03;6.28;;;2.90;;
58015;SDS011;43809;52.110;20.964;2024-01-16T11:51:25;5.47;;;3.10;;
58015;SDS011;43809;52.110;20.964;2024-01-16T11:53:31;5.72;;;3.40;;
58015;SDS011;43809;52.110;20.964;2024-01-16T11:55:34;4.13;;;2.72;;
58015;SDS011;43809;52.110;20.964;2024-01-16T11:57:39;6.70;;;3.90;;
58015;SDS011;43809;52.110;20.964;2024-01-16T12:01:55;4.63;;;2.55;;
58015;SDS011;43809;52.110;20.964;2024-01-16T12:04:01;4.65;;;2.58;;
58015;SDS011;43809;52.110;20.964;2024-01-16T12:06:02;4.50;;;2.92;;
58015;SDS011;43809;52.110;20.964;2024-01-16T12:08:03;4.80;;;2.70;;
58015;SDS011;43809;52.110;20.964;2024-01-16T12:10:04;3.85;;;2.47;;
58015;SDS011;43809;52.110;20.964;2024-01-16T12:12:05;4.68;;;2.63;;
58015;SDS011;43809;52.110;20.964;2024-01-16T12:14:06;3.42;;;2.40;;
58015;SDS011;43809;52.110;20.964;2024-01-16T12:20:40;4.47;;;2.30;;
58015;SDS011;43809;52.110;20.964;2024-01-16T12:22:41;4.15;;;2.30;;
58015;SDS011;43809;52.110;20.964;2024-01-16T12:27:09;4.43;;;2.55;;
58015;SDS011;43809;52.110;20.964;2024-01-16T12:29:10;3.75;;;2.40;;
58015;SDS011;43809;52.110;20.964;2024-01-16T12:31:17;4.05;;;2.30;;
58015;SDS011;43809;52.110;20.964;2024-01-16T12:33:21;4.03;;;2.67;;
58015;SDS011;43809;52.110;20.964;2024-01-16T12:35:22;3.95;;;2.40;;
58015;SDS011;43809;52.110;20.964;2024-01-16T12:37:23;3.75;;;2.50;;
58015;SDS011;43809;52.110;20.964;2024-01-16T12:39:23;3.67;;;2.42;;
58015;SDS011;43809;52.110;20.964;2024-01-16T12:41:24;4.50;;;2.30;;
58015;SDS011;43809;52.110;20.964;2024-01-16T12:43:27;4.53;;;2.78;;
58015;SDS011;43809;52.110;20.964;2024-01-16T12:45:28;4.00;;;2.25;;
58015;SDS011;43809;52.110;20.964;2024-01-16T12:47:29;3.00;;;2.25;;
58015;SDS011;43809;52.110;20.964;2024-01-16T12:49:30;3.95;;;2.72;;
58015;SDS011;43809;52.110;20.964;2024-01-16T12:51:31;4.25;;;2.58;;
58015;SDS011;43809;52.110;20.964;2024-01-16T12:53:33;5.00;;;2.80;;
58015;SDS011;43809;52.110;20.964;2024-01-16T12:55:40;5.55;;;2.53;;
58015;SDS011;43809;52.110;20.964;2024-01-16T12:57:41;4.30;;;2.30;;
58015;SDS011;43809;52.110;20.964;2024-01-16T12:59:41;5.15;;;2.90;;
58015;SDS011;43809;52.110;20.964;2024-01-16T13:01:43;3.95;;;2.60;;
58015;SDS011;43809;52.110;20.964;2024-01-16T13:03:50;6.13;;;3.38;;
58015;SDS011;43809;52.110;20.964;2024-01-16T13:05:54;4.30;;;2.50;;
58015;SDS011;43809;52.110;20.964;2024-01-16T13:07:59;5.57;;;2.90;;
58015;SDS011;43809;52.110;20.964;2024-01-16T13:10:09;4.43;;;2.60;;
58015;SDS011;43809;52.110;20.964;2024-01-16T13:12:19;5.30;;;2.63;;
58015;SDS011;43809;52.110;20.964;2024-01-16T13:14:20;6.07;;;3.08;;
58015;SDS011;43809;52.110;20.964;2024-01-16T13:16:25;3.80;;;2.53;;
58015;SDS011;43809;52.110;20.964;2024-01-16T13:20:26;4.75;;;2.80;;
58015;SDS011;43809;52.110;20.964;2024-01-16T13:22:27;3.20;;;2.42;;
58015;SDS011;43809;52.110;20.964;2024-01-16T13:24:29;3.97;;;2.40;;
58015;SDS011;43809;52.110;20.964;2024-01-16T13:26:29;4.00;;;2.63;;
58015;SDS011;43809;52.110;20.964;2024-01-16T13:28:38;4.13;;;2.30;;
58015;SDS011;43809;52.110;20.964;2024-01-16T13:30:46;4.60;;;2.22;;
58015;SDS011;43809;52.110;20.964;2024-01-16T13:32:47;3.40;;;2.30;;
58015;SDS011;43809;52.110;20.964;2024-01-16T13:34:47;3.20;;;2.08;;
58015;SDS011;43809;52.110;20.964;2024-01-16T13:36:50;4.47;;;2.22;;
58015;SDS011;43809;52.110;20.964;2024-01-16T13:38:51;3.38;;;2.30;;
58015;SDS011;43809;52.110;20.964;2024-01-16T13:40:52;3.10;;;1.90;;
58015;SDS011;43809;52.110;20.964;2024-01-16T13:42:53;3.17;;;2.10;;
58015;SDS011;43809;52.110;20.964;2024-01-16T13:44:53;4.40;;;2.33;;
58015;SDS011;43809;52.110;20.964;2024-01-16T13:46:54;4.63;;;2.80;;
58015;SDS011;43809;52.110;20.964;2024-01-16T13:48:57;4.53;;;2.47;;
58015;SDS011;43809;52.110;20.964;2024-01-16T13:52:58;3.95;;;2.30;;
58015;SDS011;43809;52.110;20.964;2024-01-16T13:54:59;4.57;;;2.55;;
58015;SDS011;43809;52.110;20.964;2024-01-16T13:57:02;4.28;;;2.40;;
58015;SDS011;43809;52.110;20.964;2024-01-16T13:59:03;3.22;;;1.85;;
58015;SDS011;43809;52.110;20.964;2024-01-16T14:04:32;3.25;;;2.10;;
58015;SDS011;43809;52.110;20.964;2024-01-16T14:06:32;4.80;;;2.42;;
58015;SDS011;43809;52.110;20.964;2024-01-16T14:08:33;4.50;;;2.20;;
58015;SDS011;43809;52.110;20.964;2024-01-16T14:10:34;5.38;;;2.60;;
58015;SDS011;43809;52.110;20.964;2024-01-16T14:12:35;2.83;;;2.10;;
58015;SDS011;43809;52.110;20.964;2024-01-16T14:14:36;2.30;;;1.83;;
58015;SDS011;43809;52.110;20.964;2024-01-16T14:16:38;3.95;;;2.42;;
58015;SDS011;43809;52.110;20.964;2024-01-16T14:18:39;3.47;;;2.03;;
58015;SDS011;43809;52.110;20.964;2024-01-16T14:20:39;4.05;;;2.17;;
58015;SDS011;43809;52.110;20.964;2024-01-16T14:22:40;4.63;;;2.50;;
58015;SDS011;43809;52.110;20.964;2024-01-16T14:24:41;3.70;;;2.30;;
58015;SDS011;43809;52.110;20.964;2024-01-16T14:29:25;4.97;;;2.92;;
58015;SDS011;43809;52.110;20.964;2024-01-16T14:31:27;3.30;;;2.30;;
58015;SDS011;43809;52.110;20.964;2024-01-16T14:33:27;4.78;;;2.58;;
58015;SDS011;43809;52.110;20.964;2024-01-16T14:35:28;3.42;;;2.33;;